Bookmark and Share
Track history (hours):
 

Edgar B Speer

More information available from US FCC via Universal Licensing System and Coast Guard Vessel Documentation Center.

Last reported at 2014-Apr-07 07:12 UTC. Time now 2014-Apr-20 21:04 UTC.
Position N 46°03' W 083°57'.
Warning: this ship's position is 13 days out of date.

Length 306 m; draft 8 m.

Type: Cargo ship. MMSI: 366971330.

NotesDate/timePositionNaut miles runAvg speedWind from/ knotsBaromVisibWave heightAir tempDewpointWater temp
2014-Apr-07 07:12N 46°03' W 083°57'0 0.0
2014-Apr-07 05:20N 46°03' W 083°57'0 0.0
2014-Apr-07 04:31N 46°03' W 083°57'0 0.0
2014-Apr-07 03:33N 46°03' W 083°57'0 0.0
2014-Apr-07 02:33N 46°03' W 083°57'10 0.2
2014-Apr-05 03:33N 45°53' W 083°60'8 7.6
2014-Apr-05 02:33N 45°51' W 084°10'1212.3
2014-Apr-05 01:33N 45°50' W 084°28'1 0.9
2014-Apr-05 00:33N 45°51' W 084°29'0 0.4
2014-Apr-04 23:33N 45°51' W 084°29'0 0.2
2014-Apr-04 22:33N 45°51' W 084°29'0 0.1
2014-Apr-04 21:33N 45°51' W 084°29'10 9.8
2014-Apr-04 20:33N 45°49' W 084°42'1110.7
2014-Apr-04 19:33N 45°50' W 084°58'10 9.8
2014-Apr-04 18:33N 45°52' W 085°12'8 8.1
2014-Apr-04 17:33N 45°53' W 085°23'9 8.9
2014-Apr-04 16:33N 45°53' W 085°36'8 7.5
2014-Apr-04 15:33N 45°51' W 085°46'1 0.7
2014-Apr-04 14:33N 45°52' W 085°46'1 0.6
2014-Apr-04 13:33N 45°52' W 085°45'0 0.2
2014-Apr-04 12:30N 45°52' W 085°45'0 0.0
2014-Apr-04 11:30N 45°52' W 085°45'0 0.0
2014-Apr-04 10:30N 45°52' W 085°45'0 0.0
2014-Apr-04 09:30N 45°52' W 085°45'0 0.0
2014-Apr-04 08:30N 45°52' W 085°45'0 0.0
2014-Apr-04 07:30N 45°52' W 085°45'0 0.0
2014-Apr-04 06:30N 45°52' W 085°45'0 0.0
2014-Apr-04 05:30N 45°52' W 085°45'0 0.0
2014-Apr-04 04:30N 45°52' W 085°45'0 0.0
2014-Apr-04 03:30N 45°52' W 085°45'0 0.0
2014-Apr-04 02:30N 45°52' W 085°45'1 1.5
2014-Apr-04 01:33N 45°52' W 085°43'0 0.4
2014-Apr-04 00:33N 45°52' W 085°43'0 0.1
2014-Apr-03 23:33N 45°52' W 085°43'0 0.0
2014-Apr-03 22:33N 45°52' W 085°43'0 0.0
2014-Apr-03 21:33N 45°52' W 085°43'0 0.0
2014-Apr-03 20:33N 45°52' W 085°43'0 0.0
2014-Apr-03 19:33N 45°52' W 085°43'0 0.0
2014-Apr-03 18:33N 45°52' W 085°43'0 0.0
2014-Apr-03 17:33N 45°52' W 085°43'0 0.0
2014-Apr-03 16:33N 45°52' W 085°43'0 0.0
2014-Apr-03 15:33N 45°52' W 085°43'0 0.0
2014-Apr-03 14:33N 45°52' W 085°43'0 0.0
2014-Apr-03 13:33N 45°52' W 085°43'0 0.0
2014-Apr-03 12:33N 45°52' W 085°43'0 0.3
2014-Apr-03 11:33N 45°52' W 085°43'0 0.2
2014-Apr-03 10:33N 45°52' W 085°43'4 4.2
2014-Apr-03 09:33N 45°51' W 085°49'9 8.7
2014-Apr-03 08:33N 45°51' W 086°01'10 9.8
2014-Apr-03 07:30N 45°48' W 086°15'1310.7
2014-Apr-03 06:17N 45°38' W 086°26'2010.7
2014-Apr-03 04:25N 45°20' W 086°41'  

Dump ship's entire track history

sailing weather and tide predictions

Edgar B Speer — WQZ9670 — position and weather